createdAt,value
2023-04-19T00:02:22.987Z,101861.53
2023-04-19T00:04:49.795Z,101867.50
2023-04-19T00:07:18.510Z,101862.81
2023-04-19T00:09:45.343Z,101858.16
2023-04-19T00:12:12.204Z,101856.97
2023-04-19T00:14:38.674Z,101857.50
2023-04-19T00:17:05.234Z,101855.19
2023-04-19T00:19:32.135Z,101851.91
2023-04-19T00:21:58.910Z,101853.00
2023-04-19T00:24:25.946Z,101855.88
2023-04-19T00:26:52.537Z,101857.94
2023-04-19T00:29:19.012Z,101851.28
2023-04-19T00:31:45.558Z,101857.00
2023-04-19T00:34:12.067Z,101846.16
2023-04-19T00:36:38.708Z,101857.25
2023-04-19T00:39:06.628Z,101864.78
2023-04-19T00:41:33.141Z,101853.84
2023-04-19T00:43:59.921Z,101857.09
2023-04-19T00:46:27.492Z,101860.28
2023-04-19T00:48:55.186Z,101863.44
2023-04-19T00:51:21.919Z,101858.72
2023-04-19T00:53:49.018Z,101850.53
2023-04-19T00:56:24.188Z,101863.31
2023-04-19T00:58:53.889Z,101858.66
2023-04-19T01:01:20.411Z,101849.66
2023-04-19T01:03:48.862Z,101852.91
2023-04-19T01:06:15.881Z,101852.69
2023-04-19T01:08:42.466Z,101847.25
2023-04-19T01:11:09.267Z,101859.34
2023-04-19T01:13:36.846Z,101856.53
2023-04-19T01:16:03.630Z,101861.53
2023-04-19T01:18:35.653Z,101858.69
2023-04-19T01:21:02.215Z,101852.41
2023-04-19T01:23:28.752Z,101857.47
2023-04-19T01:25:56.119Z,101854.63
2023-04-19T01:28:22.909Z,101854.50
2023-04-19T01:30:51.199Z,101853.34
2023-04-19T01:33:19.528Z,101849.59
2023-04-19T01:35:47.275Z,101839.75
2023-04-19T01:38:14.878Z,101841.38
2023-04-19T01:40:41.345Z,101839.38
2023-04-19T01:43:08.551Z,101838.16
2023-04-19T01:45:36.310Z,101839.72
2023-04-19T01:48:04.696Z,101846.53
2023-04-19T01:50:34.073Z,101843.69
2023-04-19T01:53:01.210Z,101840.03
2023-04-19T01:55:27.877Z,101841.47
2023-04-19T01:57:55.982Z,101846.66
2023-04-19T02:00:23.054Z,101839.53
2023-04-19T02:02:49.941Z,101842.16
2023-04-19T02:05:16.883Z,101838.34
2023-04-19T02:07:44.838Z,101852.16
2023-04-19T02:10:11.634Z,101838.69
2023-04-19T02:12:38.540Z,101835.81
2023-04-19T02:15:05.575Z,101848.72
2023-04-19T02:17:34.585Z,101832.63
2023-04-19T02:20:01.155Z,101847.41
2023-04-19T02:22:27.918Z,101844.63
2023-04-19T02:24:54.401Z,101841.66
2023-04-19T02:27:27.238Z,101833.63
2023-04-19T02:29:54.700Z,101835.28
2023-04-19T02:32:21.374Z,101838.53
2023-04-19T02:34:47.892Z,101829.53
2023-04-19T02:37:14.526Z,101833.88
2023-04-19T02:39:42.684Z,101836.41
2023-04-19T02:42:09.269Z,101833.56
2023-04-19T02:44:35.846Z,101830.66
2023-04-19T02:47:02.297Z,101830.53
2023-04-19T02:49:34.767Z,101835.59
2023-04-19T02:52:01.757Z,101828.31
2023-04-19T02:54:28.763Z,101826.41
2023-04-19T02:56:57.680Z,101821.00
2023-04-19T02:59:24.265Z,101826.06
2023-04-19T03:01:51.061Z,101821.56
2023-04-19T03:04:18.244Z,101820.50
2023-04-19T03:06:45.448Z,101824.84
2023-04-19T03:09:12.545Z,101818.53
2023-04-19T03:11:39.518Z,101821.06
2023-04-19T03:14:06.180Z,101814.00
2023-04-19T03:16:33.668Z,101809.66
2023-04-19T03:19:00.376Z,101809.50
2023-04-19T03:21:30.988Z,101823.41
2023-04-19T03:23:57.512Z,101821.47
2023-04-19T03:26:25.513Z,101810.88
2023-04-19T03:28:54.070Z,101810.78
2023-04-19T03:31:50.420Z,101808.16
2023-04-19T03:34:18.175Z,101804.47
2023-04-19T03:36:47.126Z,101802.75
2023-04-19T03:39:13.993Z,101812.25
2023-04-19T03:41:42.762Z,101805.31
2023-04-19T03:44:22.887Z,101805.22
2023-04-19T03:46:49.380Z,101807.72
2023-04-19T03:49:20.516Z,101808.50
2023-04-19T03:51:52.190Z,101809.28
2023-04-19T03:54:18.787Z,101804.03
2023-04-19T03:56:45.292Z,101807.41
2023-04-19T03:59:12.524Z,101801.25
2023-04-19T04:01:42.285Z,101801.25
2023-04-19T04:04:09.692Z,101796.84
2023-04-19T04:06:36.967Z,101797.66
2023-04-19T04:09:03.976Z,101794.22
2023-04-19T04:11:30.962Z,101789.88
2023-04-19T04:13:57.773Z,101786.44
2023-04-19T04:16:27.948Z,101800.34
2023-04-19T04:18:55.908Z,101800.28
2023-04-19T04:21:26.985Z,101809.97
2023-04-19T04:23:55.408Z,101802.97
2023-04-19T04:26:34.369Z,101796.03
2023-04-19T04:29:14.285Z,101799.47
2023-04-19T04:31:42.023Z,101799.56
2023-04-19T04:34:09.943Z,101794.31
2023-04-19T04:36:44.019Z,101804.03
2023-04-19T04:39:12.400Z,101801.50
2023-04-19T04:41:42.133Z,101804.25
2023-04-19T04:44:12.493Z,101803.56
2023-04-19T04:46:50.419Z,101802.00
2023-04-19T04:49:23.106Z,101801.44
2023-04-19T04:51:49.852Z,101807.03
2023-04-19T04:54:17.404Z,101804.78
2023-04-19T04:56:45.781Z,101803.44
2023-04-19T04:59:13.002Z,101800.34
2023-04-19T05:01:43.323Z,101798.97
2023-04-19T05:04:10.428Z,101797.50
2023-04-19T05:06:37.056Z,101801.31
2023-04-19T05:09:03.665Z,101806.91
2023-04-19T05:11:33.663Z,101811.66
2023-04-19T05:14:00.915Z,101801.50
2023-04-19T05:16:27.993Z,101813.13
2023-04-19T05:18:55.578Z,101817.06
2023-04-19T05:21:23.390Z,101808.69
2023-04-19T05:23:53.518Z,101812.53
2023-04-19T05:26:20.711Z,101809.31
2023-04-19T05:28:49.234Z,101802.44
2023-04-19T05:31:22.339Z,101806.91
2023-04-19T05:34:06.518Z,101799.19
2023-04-19T05:36:33.182Z,101804.56
2023-04-19T05:38:59.705Z,101799.47
2023-04-19T05:41:26.289Z,101798.72
2023-04-19T05:43:53.227Z,101796.31
2023-04-19T05:46:20.426Z,101798.22
2023-04-19T05:48:47.327Z,101790.47
2023-04-19T05:51:39.742Z,101799.41
2023-04-19T05:54:12.652Z,101792.50
2023-04-19T05:56:40.670Z,101786.47
2023-04-19T05:59:08.289Z,101782.91
2023-04-19T06:01:35.693Z,101784.88
2023-04-19T06:04:02.772Z,101783.84
2023-04-19T06:06:29.500Z,101780.00
2023-04-19T06:08:56.183Z,101776.34
2023-04-19T06:11:31.329Z,101782.00
2023-04-19T06:14:02.170Z,101784.50
2023-04-19T06:16:28.858Z,101780.31
2023-04-19T06:18:55.381Z,101783.72
2023-04-19T06:21:21.876Z,101777.25
2023-04-19T06:23:48.462Z,101777.59
2023-04-19T06:26:15.020Z,101782.34
2023-04-19T06:28:41.524Z,101781.03
2023-04-19T06:31:08.154Z,101778.84
2023-04-19T06:33:34.731Z,101785.72
2023-04-19T06:36:01.402Z,101791.72
2023-04-19T06:38:27.916Z,101780.16
2023-04-19T06:40:54.388Z,101777.47
2023-04-19T06:43:21.437Z,101781.75
2023-04-19T06:45:48.320Z,101779.13
2023-04-19T06:48:17.321Z,101777.41
2023-04-19T06:50:44.956Z,101780.09
2023-04-19T06:53:11.507Z,101784.56
2023-04-19T06:55:38.075Z,101769.63
2023-04-19T06:58:04.739Z,101763.63
2023-04-19T07:00:31.591Z,101768.88
2023-04-19T07:02:59.911Z,101776.78
2023-04-19T07:05:26.931Z,101767.97
2023-04-19T07:07:53.493Z,101767.19
2023-04-19T07:10:20.197Z,101768.09
2023-04-19T07:12:46.712Z,101768.31
2023-04-19T07:15:13.478Z,101757.97
2023-04-19T07:17:40.444Z,101761.63
2023-04-19T07:20:07.759Z,101755.75
2023-04-19T07:22:34.277Z,101762.09
2023-04-19T07:25:01.070Z,101752.75
2023-04-19T07:27:27.604Z,101760.03
2023-04-19T07:29:54.289Z,101752.34
2023-04-19T07:32:22.194Z,101748.22
2023-04-19T07:34:48.861Z,101740.59
2023-04-19T07:37:15.287Z,101749.75
2023-04-19T07:39:41.989Z,101741.25
2023-04-19T07:42:08.492Z,101726.53
2023-04-19T07:44:35.058Z,101728.50
2023-04-19T07:47:01.603Z,101727.84
2023-04-19T07:49:29.324Z,101731.75
2023-04-19T07:51:56.321Z,101727.66
2023-04-19T07:54:22.943Z,101726.19
2023-04-19T07:56:49.427Z,101727.22
2023-04-19T07:59:15.896Z,101714.19
2023-04-19T08:01:43.141Z,101725.81
2023-04-19T08:04:10.326Z,101710.25
2023-04-19T08:06:39.207Z,101705.16
2023-04-19T08:09:05.765Z,101708.91
2023-04-19T08:11:32.308Z,101700.34
2023-04-19T08:14:09.429Z,101719.97
2023-04-19T08:17:21.295Z,101712.41
2023-04-19T08:19:28.176Z,101717.19
2023-04-19T08:21:55.409Z,101719.25
2023-04-19T08:24:21.976Z,101712.50
2023-04-19T08:26:54.054Z,101710.09
2023-04-19T08:29:22.235Z,101707.72
2023-04-19T08:31:49.391Z,101700.03
2023-04-19T08:34:16.217Z,101699.41
2023-04-19T08:36:51.921Z,101691.72
2023-04-19T08:39:33.007Z,101708.69
2023-04-19T08:42:18.058Z,101708.03
2023-04-19T08:45:17.028Z,101695.06
2023-04-19T08:47:58.897Z,101695.28
2023-04-19T08:50:35.347Z,101698.97
2023-04-19T08:53:21.063Z,101699.94
2023-04-19T08:56:08.844Z,101691.19
2023-04-19T08:58:54.901Z,101687.75
2023-04-19T09:06:24.619Z,101663.72
2023-04-19T09:08:57.797Z,101678.09
2023-04-19T09:11:37.705Z,101669.63
2023-04-19T09:14:15.465Z,101676.97
2023-04-19T09:16:42.731Z,101658.31
2023-04-19T09:19:22.256Z,101671.31
2023-04-19T09:21:51.924Z,101664.13
2023-04-19T09:24:18.634Z,101648.06
2023-04-19T09:26:55.376Z,101646.28
2023-04-19T09:29:24.621Z,101643.59
2023-04-19T09:31:59.274Z,101639.16
2023-04-19T09:34:26.006Z,101633.88
2023-04-19T09:37:04.126Z,101620.72
2023-04-19T09:39:36.710Z,101623.47
2023-04-19T09:42:07.281Z,101615.59
2023-04-19T09:47:25.904Z,101599.84
2023-04-19T09:50:21.794Z,101599.00
2023-04-19T09:52:52.208Z,101585.03
2023-04-19T09:57:49.795Z,101572.13
2023-04-19T10:00:16.858Z,101574.91
2023-04-19T10:02:45.243Z,101560.97
2023-04-19T10:05:20.436Z,101554.91
2023-04-19T10:07:49.432Z,101558.56
2023-04-19T10:10:20.953Z,101549.22
2023-04-19T10:13:11.593Z,101560.06
2023-04-19T10:18:09.724Z,101541.94
2023-04-19T10:20:49.771Z,101550.16
2023-04-19T10:23:17.426Z,101541.56
2023-04-19T10:25:48.374Z,101537.34
2023-04-19T10:28:17.893Z,101533.97
2023-04-19T10:31:04.562Z,101534.97
2023-04-19T10:33:36.034Z,101533.25
2023-04-19T10:36:03.107Z,101531.53
2023-04-19T10:38:45.724Z,101535.13
2023-04-19T10:41:15.447Z,101528.94
2023-04-19T10:43:56.656Z,101523.56
2023-04-19T10:46:24.514Z,101517.47
2023-04-19T10:48:55.294Z,101517.59
2023-04-19T10:51:27.834Z,101524.72
2023-04-19T10:53:57.462Z,101499.97
2023-04-19T10:56:32.738Z,101506.22
2023-04-19T10:59:02.630Z,101494.16
2023-04-19T11:01:41.078Z,101498.00
2023-04-19T11:04:12.492Z,101491.16
2023-04-19T11:06:53.946Z,101489.59
2023-04-19T11:09:42.409Z,101491.50
2023-04-19T11:12:14.609Z,101490.50
2023-04-19T11:14:52.607Z,101482.34
2023-04-19T11:17:26.945Z,101488.50
2023-04-19T11:19:56.888Z,101474.25
2023-04-19T11:22:33.358Z,101470.69
2023-04-19T11:25:14.646Z,101463.69
2023-04-19T11:27:44.149Z,101467.28
2023-04-19T11:30:16.614Z,101473.53
2023-04-19T11:32:48.200Z,101473.56
2023-04-19T11:35:16.070Z,101464.75
2023-04-19T11:37:43.160Z,101465.69
2023-04-19T11:40:14.464Z,101448.91
2023-04-19T11:42:43.110Z,101447.28
2023-04-19T11:45:18.549Z,101442.03
2023-04-19T11:47:49.564Z,101442.16
2023-04-19T11:50:41.848Z,101435.91
2023-04-19T11:53:18.352Z,101429.75
2023-04-19T11:55:57.594Z,101438.78
2023-04-19T11:58:49.865Z,101426.03
2023-04-19T12:01:20.795Z,101424.06
2023-04-19T12:03:49.387Z,101427.69
2023-04-19T12:06:27.704Z,101438.19
2023-04-19T12:08:55.910Z,101433.00
2023-04-19T12:11:26.381Z,101424.19
2023-04-19T12:14:28.453Z,101423.34
2023-04-19T12:17:06.258Z,101434.03
2023-04-19T12:19:37.647Z,101413.84
2023-04-19T12:22:15.914Z,101412.28
2023-04-19T12:24:43.588Z,101409.88
2023-04-19T12:27:11.259Z,101412.94
2023-04-19T12:29:39.146Z,101405.19
2023-04-19T12:32:06.333Z,101401.84
2023-04-19T12:34:33.015Z,101414.34
2023-04-19T12:36:59.579Z,101403.72
2023-04-19T12:39:26.274Z,101391.28
2023-04-19T12:41:52.834Z,101399.34
2023-04-19T12:44:20.178Z,101398.44
2023-04-19T12:46:46.644Z,101397.50
2023-04-19T12:49:13.236Z,101394.88
2023-04-19T12:51:42.247Z,101386.84
2023-04-19T12:54:08.962Z,101385.19
2023-04-19T12:56:35.910Z,101372.72
2023-04-19T12:59:02.507Z,101377.06
2023-04-19T13:01:29.086Z,101371.63
2023-04-19T13:03:58.745Z,101372.47
2023-04-19T13:06:26.654Z,101378.72
2023-04-19T13:08:55.037Z,101371.56
2023-04-19T13:11:23.535Z,101371.47
2023-04-19T13:13:51.811Z,101368.69
2023-04-19T13:16:19.348Z,101358.91
2023-04-19T13:18:46.211Z,101356.34
2023-04-19T13:21:12.836Z,101354.75
2023-04-19T13:23:40.483Z,101355.75
2023-04-19T13:26:07.394Z,101347.88
2023-04-19T13:28:35.920Z,101361.22
2023-04-19T13:31:04.376Z,101349.53
2023-04-19T13:33:30.939Z,101352.91
2023-04-19T13:35:57.481Z,101346.75
2023-04-19T13:38:25.120Z,101344.25
2023-04-19T13:40:51.707Z,101346.03
2023-04-19T13:43:18.192Z,101356.56
2023-04-19T13:45:44.700Z,101346.75
2023-04-19T13:48:11.397Z,101342.38
2023-04-19T13:50:38.037Z,101337.94
2023-04-19T13:53:04.595Z,101349.50
2023-04-19T13:55:31.161Z,101337.94
2023-04-19T13:57:57.677Z,101334.56
2023-04-19T14:00:24.234Z,101325.78
2023-04-19T14:02:52.421Z,101335.59
2023-04-19T14:05:19.393Z,101333.00
2023-04-19T14:07:48.243Z,101315.19
2023-04-19T14:10:14.754Z,101326.66
2023-04-19T14:12:41.375Z,101340.72
2023-04-19T14:15:08.462Z,101329.06
2023-04-19T14:17:35.993Z,101321.06
2023-04-19T14:20:03.906Z,101307.84
2023-04-19T14:22:32.666Z,101303.63
2023-04-19T14:24:59.147Z,101299.25
2023-04-19T14:27:26.340Z,101308.94
2023-04-19T14:29:52.817Z,101312.28
2023-04-19T14:32:24.997Z,101303.25
2023-04-19T14:34:55.873Z,101305.75
2023-04-19T14:37:23.571Z,101289.72
2023-04-19T14:39:50.563Z,101288.88
2023-04-19T14:42:17.047Z,101291.81
2023-04-19T14:44:43.978Z,101275.16
2023-04-19T14:47:10.975Z,101276.94
2023-04-19T14:49:37.429Z,101285.69
2023-04-19T14:52:04.504Z,101291.75
2023-04-19T14:54:31.336Z,101287.19
2023-04-19T14:56:57.845Z,101286.22
2023-04-19T14:59:24.369Z,101279.06
2023-04-19T15:01:50.872Z,101275.66
2023-04-19T15:07:29.355Z,101267.00
2023-04-19T15:09:55.907Z,101272.28
2023-04-19T15:12:22.458Z,101271.19
2023-04-19T15:14:49.057Z,101268.38
2023-04-19T15:17:16.696Z,101271.78
2023-04-19T15:19:44.260Z,101272.56
2023-04-19T15:22:11.273Z,101259.13
2023-04-19T15:24:38.179Z,101255.53
2023-04-19T15:27:05.059Z,101253.72
2023-04-19T15:29:32.113Z,101254.66
2023-04-19T15:31:59.097Z,101258.22
2023-04-19T15:34:25.601Z,101252.91
2023-04-19T15:37:46.720Z,101253.91
2023-04-19T15:39:59.172Z,101238.03
2023-04-19T15:42:26.032Z,101243.53
2023-04-19T15:44:52.544Z,101251.81
2023-04-19T15:47:19.473Z,101241.66
2023-04-19T15:49:47.493Z,101240.84
2023-04-19T15:52:14.061Z,101267.13
2023-04-19T15:54:40.756Z,101259.50
2023-04-19T15:57:07.807Z,101254.38
2023-04-19T15:59:34.300Z,101259.28
2023-04-19T16:02:01.361Z,101245.56
2023-04-19T16:04:28.523Z,101256.59
2023-04-19T16:06:55.500Z,101252.41
2023-04-19T16:09:22.739Z,101248.56
2023-04-19T16:11:51.941Z,101258.06
2023-04-19T16:14:18.542Z,101249.16
2023-04-19T16:16:45.187Z,101247.66
2023-04-19T16:19:11.946Z,101257.94
2023-04-19T16:21:38.623Z,101265.78
2023-04-19T16:24:05.512Z,101246.00
2023-04-19T16:26:33.932Z,101252.53
2023-04-19T16:29:00.975Z,101255.28
2023-04-19T16:31:27.737Z,101260.41
2023-04-19T16:33:54.303Z,101252.91
2023-04-19T16:36:20.812Z,101260.06
2023-04-19T16:38:47.422Z,101267.78
2023-04-19T16:41:14.174Z,101251.91
2023-04-19T16:43:40.885Z,101265.41
2023-04-19T16:46:07.474Z,101236.44
2023-04-19T16:48:34.094Z,101251.19
2023-04-19T16:51:00.507Z,101243.53
2023-04-19T16:53:27.149Z,101259.75
2023-04-19T16:55:55.074Z,101247.38
2023-04-19T16:58:22.961Z,101244.31
2023-04-19T17:00:49.697Z,101249.78
2023-04-19T17:03:16.939Z,101250.63
2023-04-19T17:05:43.836Z,101242.53
2023-04-19T17:08:11.996Z,101234.38
2023-04-19T17:10:38.709Z,101243.09
2023-04-19T17:13:05.212Z,101235.94
2023-04-19T17:15:31.900Z,101236.78
2023-04-19T17:17:58.429Z,101242.00
2023-04-19T17:20:25.167Z,101238.22
2023-04-19T17:22:52.202Z,101244.28
2023-04-19T17:25:19.962Z,101245.06
2023-04-19T17:27:48.342Z,101239.53
2023-04-19T17:30:16.105Z,101231.41
2023-04-19T17:32:42.984Z,101237.47
2023-04-19T17:35:09.815Z,101244.56
2023-04-19T17:37:36.346Z,101241.84
2023-04-19T17:40:03.016Z,101235.41
2023-04-19T17:42:29.900Z,101230.81
2023-04-19T17:44:56.499Z,101253.75
2023-04-19T17:47:23.216Z,101242.09
2023-04-19T17:49:50.263Z,101242.88
2023-04-19T17:52:16.750Z,101237.47
2023-04-19T17:54:44.152Z,101245.28
2023-04-19T17:57:10.734Z,101234.53
2023-04-19T17:59:37.282Z,101237.97
2023-04-19T18:02:03.863Z,101240.50
2023-04-19T18:04:31.291Z,101240.44
2023-04-19T18:06:58.241Z,101254.38
2023-04-19T18:09:24.901Z,101237.41
2023-04-19T18:11:51.434Z,101257.63
2023-04-19T18:14:18.220Z,101261.84
2023-04-19T18:16:45.320Z,101248.41
2023-04-19T18:19:12.184Z,101249.97
2023-04-19T18:21:38.944Z,101259.53
2023-04-19T18:24:06.318Z,101259.38
2023-04-19T18:26:41.323Z,101273.19
2023-04-19T18:29:08.790Z,101270.31
2023-04-19T18:31:35.675Z,101253.22
2023-04-19T18:34:02.618Z,101260.78
2023-04-19T18:36:29.203Z,101254.25
2023-04-19T18:38:56.237Z,101260.22
2023-04-19T18:41:23.317Z,101263.53
2023-04-19T18:44:13.150Z,101253.56
2023-04-19T18:46:36.374Z,101269.28
2023-04-19T18:49:03.139Z,101265.59
2023-04-19T18:51:29.684Z,101283.88
2023-04-19T18:53:56.441Z,101285.41
2023-04-19T18:56:36.248Z,101275.47
2023-04-19T18:59:10.027Z,101273.41
2023-04-19T19:01:36.739Z,101266.16
2023-04-19T19:06:33.454Z,101288.50
2023-04-19T19:09:00.633Z,101279.50
2023-04-19T19:11:51.742Z,101274.03
2023-04-19T19:14:13.670Z,101297.19
2023-04-19T19:16:51.007Z,101272.03
2023-04-19T19:19:20.734Z,101280.16
2023-04-19T19:21:47.394Z,101262.91
2023-04-19T19:24:13.899Z,101270.34
2023-04-19T19:26:40.575Z,101265.53
2023-04-19T19:29:09.259Z,101262.59
2023-04-19T19:31:36.746Z,101261.34
2023-04-19T19:34:14.733Z,101256.66
2023-04-19T19:36:49.162Z,101244.53
2023-04-19T19:39:16.499Z,101230.19
2023-04-19T19:44:13.059Z,101225.47
2023-04-19T19:46:40.020Z,101208.88
2023-04-19T19:49:11.506Z,101220.28
2023-04-19T19:51:56.938Z,101218.56
2023-04-19T19:54:24.999Z,101231.69
2023-04-19T19:59:29.225Z,101260.19
2023-04-19T20:01:56.943Z,101245.69
2023-04-19T20:04:23.640Z,101241.78
2023-04-19T20:09:21.132Z,101235.53
2023-04-19T20:11:48.044Z,101226.63
2023-04-19T20:14:14.689Z,101224.81
2023-04-19T20:16:41.299Z,101219.50
2023-04-19T20:19:10.225Z,101209.13
2023-04-19T20:21:37.945Z,101210.03
2023-04-19T20:24:05.873Z,101202.13
2023-04-19T20:26:32.891Z,101192.50
2023-04-19T20:29:01.006Z,101186.50
2023-04-19T20:31:27.881Z,101186.63
2023-04-19T20:33:54.780Z,101184.09
2023-04-19T20:36:24.911Z,101187.66
2023-04-19T20:38:51.761Z,101185.13
2023-04-19T20:41:19.006Z,101181.81
2023-04-19T20:43:45.732Z,101179.19
2023-04-19T20:46:12.683Z,101181.03
2023-04-19T20:48:39.397Z,101179.22
2023-04-19T20:51:06.321Z,101175.88
2023-04-19T20:53:34.389Z,101169.00
2023-04-19T20:56:02.830Z,101176.41
2023-04-19T20:58:32.221Z,101160.03
2023-04-19T21:00:59.586Z,101152.34
2023-04-19T21:03:26.371Z,101166.56
2023-04-19T21:05:53.302Z,101152.56
2023-04-19T21:08:20.292Z,101160.47
2023-04-19T21:10:46.839Z,101144.66
2023-04-19T21:13:13.344Z,101140.22
2023-04-19T21:15:40.213Z,101143.72
2023-04-19T21:18:07.148Z,101143.63
2023-04-19T21:20:34.356Z,101136.75
2023-04-19T21:23:02.512Z,101143.59
2023-04-19T21:25:29.314Z,101140.88
2023-04-19T21:27:56.114Z,101144.38
2023-04-19T21:30:23.658Z,101142.56
2023-04-19T21:32:50.372Z,101150.47
2023-04-19T21:35:17.182Z,101149.47
2023-04-19T21:37:43.645Z,101137.91
2023-04-19T21:40:10.531Z,101132.50
2023-04-19T21:42:37.181Z,101140.34
2023-04-19T21:45:04.129Z,101142.00
2023-04-19T21:47:31.845Z,101145.50
2023-04-19T21:49:58.636Z,101141.91
2023-04-19T21:52:25.407Z,101139.22
2023-04-19T21:54:51.962Z,101141.00
2023-04-19T21:57:22.242Z,101137.50
2023-04-19T21:59:48.770Z,101140.13
2023-04-19T22:02:15.616Z,101140.91
2023-04-19T22:04:42.319Z,101132.91
2023-04-19T22:07:09.968Z,101134.66
2023-04-19T22:09:36.419Z,101129.34
2023-04-19T22:12:03.800Z,101124.91
2023-04-19T22:14:31.036Z,101124.91
2023-04-19T22:16:59.241Z,101121.44
2023-04-19T22:19:25.716Z,101119.63
2023-04-19T22:21:53.679Z,101121.44
2023-04-19T22:24:22.044Z,101121.44
2023-04-19T22:26:50.074Z,101124.84
2023-04-19T22:29:17.816Z,101126.50
2023-04-19T22:31:44.657Z,101112.28
2023-04-19T22:34:13.214Z,101113.88
2023-04-19T22:36:40.067Z,101112.75
2023-04-19T22:39:06.637Z,101116.69
2023-04-19T22:41:34.364Z,101118.19
2023-04-19T22:44:01.129Z,101121.28
2023-04-19T22:46:28.357Z,101117.53
2023-04-19T22:48:56.516Z,101123.25
2023-04-19T22:51:24.357Z,101116.66
2023-04-19T22:53:50.989Z,101119.91
2023-04-19T22:56:17.934Z,101092.59
2023-04-19T22:58:44.605Z,101106.41
2023-04-19T23:01:11.323Z,101110.47
2023-04-19T23:03:37.873Z,101104.88
2023-04-19T23:06:05.104Z,101097.50
2023-04-19T23:08:33.477Z,101097.13
2023-04-19T23:11:00.398Z,101102.81
2023-04-19T23:13:29.287Z,101098.19
2023-04-19T23:15:55.844Z,101084.16
2023-04-19T23:18:22.478Z,101091.84
2023-04-19T23:20:49.015Z,101089.84
2023-04-19T23:23:15.692Z,101086.47
2023-04-19T23:25:42.376Z,101083.78
2023-04-19T23:28:11.904Z,101086.47
2023-04-19T23:30:39.364Z,101080.31
2023-04-19T23:33:06.115Z,101080.19
2023-04-19T23:35:32.888Z,101073.28
2023-04-19T23:37:59.748Z,101063.66
2023-04-19T23:40:26.667Z,101047.84
2023-04-19T23:42:53.231Z,101061.75
2023-04-19T23:45:19.801Z,101072.13
2023-04-19T23:47:46.817Z,101062.47
2023-04-19T23:50:13.479Z,101057.28
2023-04-19T23:52:40.588Z,101065.97
2023-04-19T23:55:07.436Z,101058.91
2023-04-19T23:57:35.859Z,101059.81
